createdAt,value
2022-08-05T00:01:48.497Z,17.94
2022-08-05T00:04:55.137Z,17.90
2022-08-05T00:08:00.765Z,17.89
2022-08-05T00:11:20.756Z,17.85
2022-08-05T00:14:31.599Z,17.79
2022-08-05T00:17:33.587Z,17.76
2022-08-05T00:20:35.316Z,17.72
2022-08-05T00:23:46.950Z,17.74
2022-08-05T00:26:55.316Z,17.69
2022-08-05T00:29:57.084Z,17.59
2022-08-05T00:33:01.950Z,17.55
2022-08-05T00:36:16.595Z,17.53
2022-08-05T00:39:25.332Z,17.55
2022-08-05T00:42:34.795Z,17.55
2022-08-05T00:45:43.146Z,17.56
2022-08-05T00:48:50.251Z,17.57
2022-08-05T00:51:52.908Z,17.59
2022-08-05T00:54:54.650Z,17.66
2022-08-05T00:57:58.911Z,17.64
2022-08-05T01:01:00.719Z,17.60
2022-08-05T01:04:03.647Z,17.55
2022-08-05T01:07:15.517Z,17.51
2022-08-05T01:10:20.999Z,17.47
2022-08-05T01:13:57.577Z,17.44
2022-08-05T01:17:08.298Z,17.41
2022-08-05T01:20:13.729Z,17.38
2022-08-05T01:23:40.654Z,17.33
2022-08-05T01:26:58.621Z,17.29
2022-08-05T01:30:04.144Z,17.26
2022-08-05T01:33:08.634Z,17.24
2022-08-05T01:36:16.231Z,17.26
2022-08-05T01:39:46.573Z,17.25
2022-08-05T01:42:44.226Z,17.30
2022-08-05T01:45:46.058Z,17.28
2022-08-05T01:49:00.377Z,17.30
2022-08-05T01:52:22.789Z,17.25
2022-08-05T01:55:27.271Z,17.20
2022-08-05T01:58:45.097Z,17.20
2022-08-05T02:01:54.825Z,17.15
2022-08-05T02:05:01.105Z,17.15
2022-08-05T02:08:05.515Z,17.09
2022-08-05T02:11:11.713Z,17.05
2022-08-05T02:14:19.904Z,17.03
2022-08-05T02:18:32.054Z,16.98
2022-08-05T02:20:58.616Z,16.88
2022-08-05T02:24:06.125Z,16.78
2022-08-05T02:27:11.282Z,16.79
2022-08-05T02:30:13.448Z,16.77
2022-08-05T02:33:35.722Z,16.72
2022-08-05T02:36:43.771Z,16.67
2022-08-05T02:39:47.807Z,16.67
2022-08-05T02:42:55.516Z,16.69
2022-08-05T02:45:57.766Z,16.62
2022-08-05T02:49:04.025Z,16.59
2022-08-05T02:52:11.395Z,16.66
2022-08-05T02:55:14.119Z,16.63
2022-08-05T02:58:22.161Z,16.62
2022-08-05T03:01:25.413Z,16.59
2022-08-05T03:04:28.882Z,16.61
2022-08-05T03:07:59.133Z,16.59
2022-08-05T03:11:53.554Z,16.55
2022-08-05T03:14:14.561Z,16.50
2022-08-05T03:17:16.355Z,16.47
2022-08-05T03:20:17.851Z,16.43
2022-08-05T03:23:24.033Z,16.39
2022-08-05T03:26:31.569Z,16.34
2022-08-05T03:29:45.919Z,16.26
2022-08-05T03:32:56.254Z,16.22
2022-08-05T03:35:58.562Z,16.21
2022-08-05T03:39:07.296Z,16.22
2022-08-05T03:42:09.509Z,16.21
2022-08-05T03:45:21.399Z,16.16
2022-08-05T03:48:24.599Z,16.15
2022-08-05T03:52:38.608Z,16.08
2022-08-05T03:56:04.085Z,16.08
2022-08-05T03:58:30.799Z,16.09
2022-08-05T04:01:36.163Z,16.06
2022-08-05T04:04:38.985Z,16.04
2022-08-05T04:07:57.585Z,15.94
2022-08-05T04:11:01.504Z,15.90
2022-08-05T04:14:04.231Z,15.82
2022-08-05T04:17:08.241Z,15.75
2022-08-05T04:20:21.548Z,15.69
2022-08-05T04:23:57.106Z,15.59
2022-08-05T04:26:48.374Z,15.55
2022-08-05T04:29:49.910Z,15.53
2022-08-05T04:32:51.440Z,15.50
2022-08-05T04:36:11.205Z,15.43
2022-08-05T04:39:14.939Z,15.35
2022-08-05T04:42:16.482Z,15.31
2022-08-05T04:45:22.831Z,15.24
2022-08-05T04:48:32.770Z,15.28
2022-08-05T04:51:34.426Z,15.22
2022-08-05T04:54:36.351Z,15.20
2022-08-05T04:57:37.846Z,15.13
2022-08-05T05:00:40.448Z,15.12
2022-08-05T05:03:42.861Z,15.12
2022-08-05T05:06:49.205Z,15.08
2022-08-05T05:09:53.343Z,15.07
2022-08-05T05:12:55.450Z,15.21
2022-08-05T05:16:02.115Z,15.34
2022-08-05T05:22:24.015Z,15.49
2022-08-05T05:25:32.688Z,15.57
2022-08-05T05:28:42.844Z,15.63
2022-08-05T05:31:46.691Z,15.70
2022-08-05T05:34:48.231Z,15.79
2022-08-05T05:37:59.479Z,15.95
2022-08-05T05:41:02.229Z,17.03
2022-08-05T05:44:03.968Z,18.82
2022-08-05T05:47:30.619Z,20.03
2022-08-05T05:50:46.966Z,20.89
2022-08-05T05:53:58.123Z,21.53
2022-08-05T05:57:00.687Z,21.06
2022-08-05T06:00:03.662Z,21.65
2022-08-05T06:03:28.286Z,22.21
2022-08-05T06:06:35.439Z,22.32
2022-08-05T06:10:00.034Z,22.21
2022-08-05T06:12:58.414Z,22.74
2022-08-05T06:16:30.696Z,22.27
2022-08-05T06:19:34.165Z,22.12
2022-08-05T06:22:36.629Z,22.30
2022-08-05T06:26:12.919Z,20.79
2022-08-05T06:28:59.633Z,19.53
2022-08-05T06:32:05.497Z,19.03
2022-08-05T06:36:08.055Z,18.69
2022-08-05T06:38:47.233Z,18.64
2022-08-05T06:41:49.830Z,19.61
2022-08-05T06:44:53.632Z,19.63
2022-08-05T06:48:37.079Z,19.24
2022-08-05T06:51:21.851Z,19.15
2022-08-05T06:54:29.709Z,19.25
2022-08-05T06:58:03.916Z,19.06
2022-08-05T07:00:52.717Z,19.15
2022-08-05T07:03:54.759Z,19.24
2022-08-05T07:06:56.224Z,19.37
2022-08-05T07:09:59.742Z,19.44
2022-08-05T07:13:05.117Z,19.91
2022-08-05T07:16:07.004Z,20.35
2022-08-05T07:19:16.117Z,20.60
2022-08-05T07:22:35.189Z,21.03
2022-08-05T07:25:56.012Z,21.35
2022-08-05T07:28:58.192Z,22.06
2022-08-05T07:32:01.249Z,23.06
2022-08-05T07:36:04.334Z,23.84
2022-08-05T07:38:33.741Z,24.17
2022-08-05T07:42:07.881Z,25.08
2022-08-05T07:44:58.184Z,23.67
2022-08-05T07:48:01.992Z,23.27
2022-08-05T07:51:03.869Z,23.08
2022-08-05T07:54:10.586Z,22.36
2022-08-05T07:57:41.884Z,22.27
2022-08-05T08:00:35.859Z,23.09
2022-08-05T08:03:44.488Z,22.74
2022-08-05T08:06:46.448Z,22.33
2022-08-05T08:09:53.193Z,21.69
2022-08-05T08:12:58.422Z,21.44
2022-08-05T08:16:34.834Z,21.61
2022-08-05T08:20:22.214Z,21.45
2022-08-05T08:22:42.990Z,21.59
2022-08-05T08:25:59.733Z,21.55
2022-08-05T08:29:45.267Z,21.55
2022-08-05T08:32:27.856Z,21.24
2022-08-05T08:35:34.729Z,21.61
2022-08-05T08:38:42.282Z,21.55
2022-08-05T08:41:59.790Z,21.20
2022-08-05T08:45:17.858Z,21.17
2022-08-05T08:49:00.987Z,21.12
2022-08-05T08:52:13.463Z,20.72
2022-08-05T08:55:19.290Z,19.89
2022-08-05T08:58:26.027Z,19.48
2022-08-05T09:01:27.912Z,19.49
2022-08-05T09:04:30.430Z,19.38
2022-08-05T09:07:55.810Z,19.16
2022-08-05T09:10:54.326Z,19.20
2022-08-05T09:14:09.915Z,19.38
2022-08-05T09:17:42.687Z,19.47
2022-08-05T09:20:40.512Z,19.32
2022-08-05T09:23:44.703Z,19.29
2022-08-05T09:26:55.539Z,19.25
2022-08-05T09:30:00.374Z,19.16
2022-08-05T09:33:07.612Z,19.42
2022-08-05T09:36:11.924Z,19.39
2022-08-05T09:39:21.915Z,19.71
2022-08-05T09:42:28.310Z,20.03
2022-08-05T09:46:07.670Z,20.55
2022-08-05T09:49:08.433Z,20.46
2022-08-05T09:52:31.810Z,20.75
2022-08-05T09:55:56.289Z,20.80
2022-08-05T09:59:09.078Z,20.60
2022-08-05T10:02:30.627Z,20.55
2022-08-05T10:05:33.015Z,20.41
2022-08-05T10:08:38.296Z,20.37
2022-08-05T10:11:45.449Z,20.34
2022-08-05T10:14:49.430Z,20.26
2022-08-05T10:18:16.700Z,20.28
2022-08-05T10:21:18.501Z,20.23
2022-08-05T10:24:24.986Z,20.45
2022-08-05T10:28:09.698Z,20.58
2022-08-05T10:32:49.302Z,20.38
2022-08-05T10:34:13.798Z,20.67
2022-08-05T10:37:16.337Z,20.52
2022-08-05T10:40:51.744Z,20.38
2022-08-05T10:44:05.583Z,20.51
2022-08-05T10:47:26.708Z,21.05
2022-08-05T10:50:36.948Z,21.40
2022-08-05T10:53:38.633Z,21.23
2022-08-05T10:56:52.826Z,21.29
2022-08-05T11:00:17.893Z,20.94
2022-08-05T11:03:23.634Z,20.74
2022-08-05T11:06:30.750Z,20.64
2022-08-05T11:10:03.808Z,20.70
2022-08-05T11:13:54.912Z,20.51
2022-08-05T11:17:57.905Z,20.76
2022-08-05T11:20:47.416Z,20.67
2022-08-05T11:24:04.787Z,21.09
2022-08-05T11:27:50.860Z,21.46
2022-08-05T11:30:56.151Z,21.21
2022-08-05T11:34:03.622Z,21.81
2022-08-05T11:38:14.298Z,22.02
2022-08-05T11:41:00.813Z,22.02
2022-08-05T11:44:08.659Z,22.59
2022-08-05T11:47:15.116Z,22.94
2022-08-05T11:50:20.173Z,23.19
2022-08-05T11:53:21.812Z,22.62
2022-08-05T11:56:23.438Z,22.79
2022-08-05T11:59:50.369Z,23.25
2022-08-05T12:02:52.170Z,23.15
2022-08-05T12:06:03.079Z,23.57
2022-08-05T12:09:07.153Z,22.58
2022-08-05T12:12:09.190Z,22.69
2022-08-05T12:15:38.353Z,23.87
2022-08-05T12:18:42.737Z,23.12
2022-08-05T12:21:53.566Z,23.34
2022-08-05T12:24:57.660Z,23.92
2022-08-05T12:27:59.124Z,23.68
2022-08-05T12:31:04.228Z,24.06
2022-08-05T12:34:14.589Z,23.78
2022-08-05T12:37:23.484Z,23.08
2022-08-05T12:40:31.649Z,23.14
2022-08-05T12:43:33.142Z,23.47
2022-08-05T12:46:41.872Z,24.05
2022-08-05T12:50:04.597Z,24.64
2022-08-05T12:53:07.899Z,23.61
2022-08-05T12:56:34.908Z,23.44
2022-08-05T13:01:58.298Z,23.55
2022-08-05T13:03:17.060Z,23.66
2022-08-05T13:06:20.843Z,23.17
2022-08-05T13:09:28.648Z,22.70
2022-08-05T13:12:30.325Z,21.81
2022-08-05T13:15:41.559Z,22.62
2022-08-05T13:18:55.091Z,22.58
2022-08-05T13:21:59.619Z,23.14
2022-08-05T13:25:07.873Z,22.73
2022-08-05T13:28:20.402Z,23.37
2022-08-05T13:31:33.900Z,23.54
2022-08-05T13:34:45.212Z,24.10
2022-08-05T13:37:47.461Z,24.51
2022-08-05T13:40:57.355Z,24.31
2022-08-05T13:43:59.457Z,23.07
2022-08-05T13:47:02.263Z,22.74
2022-08-05T13:50:14.848Z,22.64
2022-08-05T13:53:18.132Z,22.45
2022-08-05T13:56:20.224Z,22.33
2022-08-05T13:59:27.078Z,22.26
2022-08-05T14:02:29.664Z,22.06
2022-08-05T14:06:24.881Z,21.54
2022-08-05T14:08:52.821Z,21.00
2022-08-05T14:12:04.453Z,21.05
2022-08-05T14:16:07.848Z,21.04
2022-08-05T14:18:38.171Z,21.49
2022-08-05T14:22:09.151Z,21.17
2022-08-05T14:25:06.375Z,21.38
2022-08-05T14:28:26.363Z,22.36
2022-08-05T14:32:02.950Z,23.00
2022-08-05T14:34:52.651Z,22.81
2022-08-05T14:37:56.164Z,22.08
2022-08-05T14:40:57.689Z,21.63
2022-08-05T14:44:09.563Z,22.29
2022-08-05T14:47:58.478Z,22.49
2022-08-05T14:50:46.187Z,21.97
2022-08-05T14:54:25.953Z,21.07
2022-08-05T14:57:09.627Z,20.99
2022-08-05T15:00:15.314Z,20.80
2022-08-05T15:03:16.775Z,21.15
2022-08-05T15:06:19.833Z,21.42
2022-08-05T15:09:51.817Z,21.87
2022-08-05T15:13:00.880Z,21.10
2022-08-05T15:16:05.066Z,21.24
2022-08-05T15:19:06.822Z,21.29
2022-08-05T15:22:16.090Z,21.43
2022-08-05T15:25:17.627Z,21.26
2022-08-05T15:28:27.559Z,21.36
2022-08-05T15:31:34.707Z,21.20
2022-08-05T15:34:36.587Z,21.71
2022-08-05T15:38:33.316Z,21.32
2022-08-05T15:41:21.047Z,21.04
2022-08-05T15:44:24.157Z,21.18
2022-08-05T15:47:27.225Z,20.80
2022-08-05T15:50:28.787Z,20.19
2022-08-05T15:53:38.476Z,20.02
2022-08-05T15:56:52.633Z,20.87
2022-08-05T15:59:57.688Z,21.42
2022-08-05T16:02:59.918Z,20.78
2022-08-05T16:06:02.369Z,20.88
2022-08-05T16:09:03.987Z,21.03
2022-08-05T16:12:05.979Z,20.59
2022-08-05T16:15:08.099Z,20.44
2022-08-05T16:18:11.171Z,20.53
2022-08-05T16:21:15.925Z,21.24
2022-08-05T16:24:41.021Z,20.75
2022-08-05T16:27:47.323Z,20.29
2022-08-05T16:31:04.585Z,20.24
2022-08-05T16:34:06.032Z,19.99
2022-08-05T16:38:03.685Z,19.68
2022-08-05T16:40:41.636Z,19.54
2022-08-05T16:43:43.173Z,19.35
2022-08-05T16:46:56.059Z,19.68
2022-08-05T16:49:57.810Z,19.54
2022-08-05T16:53:11.966Z,19.44
2022-08-05T16:56:14.294Z,19.35
2022-08-05T16:59:15.812Z,19.05
2022-08-05T17:02:18.323Z,18.90
2022-08-05T17:05:20.380Z,18.96
2022-08-05T17:08:36.333Z,19.25
2022-08-05T17:11:48.629Z,18.76
2022-08-05T17:14:50.878Z,18.73
2022-08-05T17:17:54.735Z,18.67
2022-08-05T17:20:56.818Z,18.43
2022-08-05T17:24:04.936Z,18.35
2022-08-05T17:27:20.238Z,18.64
2022-08-05T17:30:28.189Z,18.94
2022-08-05T17:33:39.093Z,19.15
2022-08-05T17:36:50.022Z,18.89
2022-08-05T17:39:52.028Z,18.59
2022-08-05T17:42:57.346Z,18.64
2022-08-05T17:46:01.596Z,18.56
2022-08-05T17:49:03.765Z,18.27
2022-08-05T17:52:05.222Z,18.20
2022-08-05T17:55:08.013Z,18.05
2022-08-05T17:58:13.666Z,17.88
2022-08-05T18:01:16.142Z,17.87
2022-08-05T18:04:21.120Z,17.68
2022-08-05T18:07:32.742Z,17.40
2022-08-05T18:10:42.495Z,17.30
2022-08-05T18:13:46.679Z,17.15
2022-08-05T18:16:51.896Z,17.00
2022-08-05T18:19:54.076Z,16.93
2022-08-05T18:22:58.267Z,16.82
2022-08-05T18:26:02.231Z,16.77
2022-08-05T18:29:06.275Z,16.53
2022-08-05T18:32:12.868Z,16.47
2022-08-05T18:35:14.619Z,16.36
2022-08-05T18:38:18.938Z,16.29
2022-08-05T18:41:56.951Z,16.30
2022-08-05T18:44:49.229Z,16.19
2022-08-05T18:47:57.841Z,16.11
2022-08-05T18:52:02.847Z,15.97
2022-08-05T18:54:23.120Z,15.93
2022-08-05T18:57:26.614Z,15.89
2022-08-05T19:00:48.095Z,15.74
2022-08-05T19:03:52.919Z,15.75
2022-08-05T19:06:57.264Z,15.70
2022-08-05T19:09:58.844Z,15.75
2022-08-05T19:13:00.382Z,15.73
2022-08-05T19:16:05.492Z,15.61
2022-08-05T19:19:25.929Z,15.61
2022-08-05T19:22:27.712Z,15.55
2022-08-05T19:25:29.856Z,15.43
2022-08-05T19:28:32.788Z,15.19
2022-08-05T19:31:44.809Z,15.10
2022-08-05T19:34:55.160Z,15.01
2022-08-05T19:38:06.259Z,15.00
2022-08-05T19:41:09.097Z,14.93
2022-08-05T19:44:13.102Z,14.76
2022-08-05T19:47:16.264Z,14.60
2022-08-05T19:50:18.159Z,14.52
2022-08-05T19:54:05.304Z,14.43
2022-08-05T19:56:41.461Z,14.27
2022-08-05T19:59:55.751Z,14.26
2022-08-05T20:03:12.902Z,14.20
2022-08-05T20:06:16.041Z,14.29
2022-08-05T20:09:53.945Z,14.29
2022-08-05T20:12:55.115Z,14.27
2022-08-05T20:15:57.689Z,14.26
2022-08-05T20:19:01.752Z,14.24
2022-08-05T20:22:03.271Z,14.18
2022-08-05T20:25:06.814Z,14.08
2022-08-05T20:28:13.749Z,13.94
2022-08-05T20:31:17.658Z,13.86
2022-08-05T20:34:23.430Z,13.76
2022-08-05T20:38:05.682Z,13.75
2022-08-05T20:40:46.322Z,13.70
2022-08-05T20:43:59.155Z,13.66
2022-08-05T20:47:06.572Z,13.61
2022-08-05T20:50:11.370Z,13.48
2022-08-05T20:53:16.135Z,13.43
2022-08-05T20:56:42.313Z,13.27
2022-08-05T21:00:10.687Z,13.27
2022-08-05T21:03:07.324Z,13.08
2022-08-05T21:06:27.687Z,12.90
2022-08-05T21:09:30.091Z,12.80
2022-08-05T21:12:31.551Z,12.74
2022-08-05T21:15:34.530Z,12.65
2022-08-05T21:18:35.978Z,12.57
2022-08-05T21:21:39.861Z,12.42
2022-08-05T21:24:48.998Z,12.35
2022-08-05T21:27:53.528Z,12.37
2022-08-05T21:30:56.164Z,12.29
2022-08-05T21:33:58.466Z,12.21
2022-08-05T21:37:00.870Z,12.13
2022-08-05T21:40:05.763Z,12.22
2022-08-05T21:43:08.309Z,12.12
2022-08-05T21:46:26.053Z,12.09
2022-08-05T21:49:58.566Z,12.03
2022-08-05T21:52:51.711Z,11.86
2022-08-05T21:56:01.497Z,11.78
2022-08-05T21:59:22.512Z,11.71
2022-08-05T22:02:27.005Z,11.71
2022-08-05T22:05:28.677Z,11.66
2022-08-05T22:08:52.171Z,11.60
2022-08-05T22:11:54.669Z,11.63
2022-08-05T22:14:58.546Z,11.59
2022-08-05T22:18:01.509Z,11.50
2022-08-05T22:21:04.733Z,11.44
2022-08-05T22:24:08.816Z,11.48
2022-08-05T22:27:17.351Z,11.48
2022-08-05T22:30:19.041Z,11.39
2022-08-05T22:33:56.536Z,11.30
2022-08-05T22:36:42.976Z,11.29
2022-08-05T22:39:44.568Z,11.35
2022-08-05T22:42:53.101Z,11.34
2022-08-05T22:45:59.771Z,11.41
2022-08-05T22:49:01.712Z,11.33
2022-08-05T22:52:05.351Z,11.26
2022-08-05T22:55:18.928Z,11.26
2022-08-05T22:58:28.357Z,11.26
2022-08-05T23:02:04.756Z,11.28
2022-08-05T23:04:52.505Z,11.20
2022-08-05T23:07:56.662Z,11.18
2022-08-05T23:10:58.131Z,11.17
2022-08-05T23:14:01.848Z,11.13
2022-08-05T23:17:04.768Z,11.11
2022-08-05T23:20:16.423Z,11.05
2022-08-05T23:23:18.626Z,11.04
2022-08-05T23:26:20.314Z,11.08
2022-08-05T23:29:23.197Z,11.05
2022-08-05T23:32:28.330Z,10.99
2022-08-05T23:35:34.439Z,10.90
2022-08-05T23:38:36.219Z,10.90
2022-08-05T23:41:37.695Z,10.86
2022-08-05T23:44:42.679Z,10.82
2022-08-05T23:47:47.570Z,10.77
2022-08-05T23:50:49.516Z,10.79
2022-08-05T23:53:50.962Z,10.79
2022-08-05T23:57:04.634Z,10.86
